sensor_id;sensor_type;location;lat;lon;timestamp;pressure;altitude;pressure_sealevel;temperature;humidity
8294;BME280;4185;41.506;24.938;2023-04-03T00:01:47;92915.06;;;7.35;76.13
8294;BME280;4185;41.506;24.938;2023-04-03T00:04:14;92909.38;;;7.33;76.33
8294;BME280;4185;41.506;24.938;2023-04-03T00:06:41;92905.19;;;7.32;76.83
8294;BME280;4185;41.506;24.938;2023-04-03T00:09:08;92900.25;;;7.31;76.61
8294;BME280;4185;41.506;24.938;2023-04-03T00:11:36;92900.22;;;7.25;76.28
8294;BME280;4185;41.506;24.938;2023-04-03T00:14:02;92886.88;;;7.16;76.75
8294;BME280;4185;41.506;24.938;2023-04-03T00:16:29;92886.13;;;7.16;77.40
8294;BME280;4185;41.506;24.938;2023-04-03T00:18:56;92878.25;;;7.12;76.61
8294;BME280;4185;41.506;24.938;2023-04-03T00:21:23;92879.78;;;7.19;76.91
8294;BME280;4185;41.506;24.938;2023-04-03T00:23:49;92879.13;;;7.29;76.36
8294;BME280;4185;41.506;24.938;2023-04-03T00:26:16;92880.16;;;7.37;76.21
8294;BME280;4185;41.506;24.938;2023-04-03T00:28:44;92870.66;;;7.42;76.06
8294;BME280;4185;41.506;24.938;2023-04-03T00:31:14;92871.06;;;7.35;76.27
8294;BME280;4185;41.506;24.938;2023-04-03T00:33:40;92873.44;;;7.22;76.08
8294;BME280;4185;41.506;24.938;2023-04-03T00:36:08;92881.16;;;7.09;77.21
8294;BME280;4185;41.506;24.938;2023-04-03T00:38:35;92876.44;;;7.04;77.82
8294;BME280;4185;41.506;24.938;2023-04-03T00:41:02;92868.56;;;7.00;77.65
8294;BME280;4185;41.506;24.938;2023-04-03T00:43:30;92863.84;;;6.95;78.34
8294;BME280;4185;41.506;24.938;2023-04-03T00:45:59;92863.34;;;6.91;77.96
8294;BME280;4185;41.506;24.938;2023-04-03T00:48:29;92859.84;;;6.85;78.08
8294;BME280;4185;41.506;24.938;2023-04-03T00:50:58;92868.78;;;6.71;77.39
8294;BME280;4185;41.506;24.938;2023-04-03T00:53:27;92865.75;;;6.64;78.13
8294;BME280;4185;41.506;24.938;2023-04-03T00:55:56;92861.59;;;6.63;78.71
8294;BME280;4185;41.506;24.938;2023-04-03T00:58:27;92863.34;;;6.66;78.71
8294;BME280;4185;41.506;24.938;2023-04-03T01:00:59;92870.16;;;6.61;78.48
8294;BME280;4185;41.506;24.938;2023-04-03T01:03:29;92876.19;;;6.51;78.88
8294;BME280;4185;41.506;24.938;2023-04-03T01:05:57;92876.59;;;6.44;79.61
8294;BME280;4185;41.506;24.938;2023-04-03T01:08:24;92870.44;;;6.43;79.26
8294;BME280;4185;41.506;24.938;2023-04-03T01:10:51;92867.88;;;6.54;80.20
8294;BME280;4185;41.506;24.938;2023-04-03T01:13:24;92862.97;;;6.53;78.54
8294;BME280;4185;41.506;24.938;2023-04-03T01:15:51;92863.03;;;6.38;78.72
8294;BME280;4185;41.506;24.938;2023-04-03T01:18:19;92871.28;;;6.29;79.32
8294;BME280;4185;41.506;24.938;2023-04-03T01:23:53;92863.97;;;6.35;80.32
8294;BME280;4185;41.506;24.938;2023-04-03T01:26:21;92869.94;;;6.39;79.12
8294;BME280;4185;41.506;24.938;2023-04-03T01:28:48;92860.59;;;6.40;79.52
8294;BME280;4185;41.506;24.938;2023-04-03T01:31:20;92856.53;;;6.50;78.65
8294;BME280;4185;41.506;24.938;2023-04-03T01:33:50;92862.53;;;6.60;78.65
8294;BME280;4185;41.506;24.938;2023-04-03T01:36:19;92867.47;;;6.61;78.34
8294;BME280;4185;41.506;24.938;2023-04-03T01:38:47;92881.31;;;6.49;78.10
8294;BME280;4185;41.506;24.938;2023-04-03T01:41:13;92889.81;;;6.42;79.13
8294;BME280;4185;41.506;24.938;2023-04-03T01:43:40;92885.00;;;6.31;79.16
8294;BME280;4185;41.506;24.938;2023-04-03T01:46:07;92889.06;;;6.21;79.46
8294;BME280;4185;41.506;24.938;2023-04-03T01:48:34;92882.47;;;6.22;79.76
8294;BME280;4185;41.506;24.938;2023-04-03T01:51:02;92885.16;;;6.22;79.88
8294;BME280;4185;41.506;24.938;2023-04-03T01:53:29;92882.00;;;6.24;79.83
8294;BME280;4185;41.506;24.938;2023-04-03T01:55:56;92880.97;;;6.21;79.60
8294;BME280;4185;41.506;24.938;2023-04-03T01:58:23;92885.84;;;6.17;81.09
8294;BME280;4185;41.506;24.938;2023-04-03T02:00:50;92883.88;;;6.17;80.33
8294;BME280;4185;41.506;24.938;2023-04-03T02:03:17;92892.09;;;6.08;79.02
8294;BME280;4185;41.506;24.938;2023-04-03T02:05:44;92895.72;;;6.05;79.89
8294;BME280;4185;41.506;24.938;2023-04-03T02:08:12;92893.78;;;6.06;79.54
8294;BME280;4185;41.506;24.938;2023-04-03T02:10:39;92892.38;;;6.10;79.71
8294;BME280;4185;41.506;24.938;2023-04-03T02:13:06;92893.66;;;6.15;79.80
8294;BME280;4185;41.506;24.938;2023-04-03T02:15:33;92892.72;;;6.18;79.47
8294;BME280;4185;41.506;24.938;2023-04-03T02:18:00;92889.34;;;6.23;78.96
8294;BME280;4185;41.506;24.938;2023-04-03T02:20:28;92888.75;;;6.13;79.88
8294;BME280;4185;41.506;24.938;2023-04-03T02:22:54;92878.00;;;6.19;79.53
8294;BME280;4185;41.506;24.938;2023-04-03T02:25:22;92880.50;;;6.22;79.02
8294;BME280;4185;41.506;24.938;2023-04-03T02:27:49;92880.97;;;6.21;78.83
8294;BME280;4185;41.506;24.938;2023-04-03T02:30:16;92883.16;;;6.17;79.00
8294;BME280;4185;41.506;24.938;2023-04-03T02:32:43;92880.78;;;6.04;79.28
8294;BME280;4185;41.506;24.938;2023-04-03T02:35:11;92881.63;;;5.96;79.95
8294;BME280;4185;41.506;24.938;2023-04-03T02:37:38;92874.22;;;5.91;79.75
8294;BME280;4185;41.506;24.938;2023-04-03T02:40:06;92878.53;;;5.83;80.05
8294;BME280;4185;41.506;24.938;2023-04-03T02:42:35;92875.25;;;5.79;80.12
8294;BME280;4185;41.506;24.938;2023-04-03T02:45:01;92875.41;;;5.70;79.88
8294;BME280;4185;41.506;24.938;2023-04-03T02:47:28;92876.97;;;5.62;80.59
8294;BME280;4185;41.506;24.938;2023-04-03T02:49:55;92871.19;;;5.69;80.55
8294;BME280;4185;41.506;24.938;2023-04-03T02:52:22;92869.06;;;5.73;81.03
8294;BME280;4185;41.506;24.938;2023-04-03T02:54:49;92880.78;;;5.70;80.51
8294;BME280;4185;41.506;24.938;2023-04-03T02:57:15;92875.78;;;5.63;80.93
8294;BME280;4185;41.506;24.938;2023-04-03T02:59:43;92875.06;;;5.48;81.30
8294;BME280;4185;41.506;24.938;2023-04-03T03:02:10;92867.38;;;5.41;80.73
8294;BME280;4185;41.506;24.938;2023-04-03T03:04:37;92861.34;;;5.46;81.34
8294;BME280;4185;41.506;24.938;2023-04-03T03:07:04;92865.22;;;5.45;81.31
8294;BME280;4185;41.506;24.938;2023-04-03T03:09:31;92866.34;;;5.38;81.18
8294;BME280;4185;41.506;24.938;2023-04-03T03:11:58;92853.44;;;5.28;81.41
8294;BME280;4185;41.506;24.938;2023-04-03T03:14:25;92854.69;;;5.27;82.20
8294;BME280;4185;41.506;24.938;2023-04-03T03:16:53;92850.13;;;5.33;81.76
8294;BME280;4185;41.506;24.938;2023-04-03T03:19:20;92848.53;;;5.41;81.49
8294;BME280;4185;41.506;24.938;2023-04-03T03:21:47;92847.88;;;5.46;81.46
8294;BME280;4185;41.506;24.938;2023-04-03T03:24:14;92857.78;;;5.40;81.40
8294;BME280;4185;41.506;24.938;2023-04-03T03:26:41;92854.09;;;5.37;81.79
8294;BME280;4185;41.506;24.938;2023-04-03T03:29:08;92856.16;;;5.28;81.51
8294;BME280;4185;41.506;24.938;2023-04-03T03:31:35;92847.44;;;5.33;81.13
8294;BME280;4185;41.506;24.938;2023-04-03T03:34:03;92852.16;;;5.38;80.60
8294;BME280;4185;41.506;24.938;2023-04-03T03:36:29;92850.38;;;5.35;81.12
8294;BME280;4185;41.506;24.938;2023-04-03T03:38:57;92862.28;;;5.28;81.12
8294;BME280;4185;41.506;24.938;2023-04-03T03:41:23;92875.13;;;5.19;81.08
8294;BME280;4185;41.506;24.938;2023-04-03T03:43:50;92882.91;;;5.17;81.54
8294;BME280;4185;41.506;24.938;2023-04-03T03:46:17;92891.63;;;5.12;81.71
8294;BME280;4185;41.506;24.938;2023-04-03T03:48:44;92902.22;;;5.01;82.37
8294;BME280;4185;41.506;24.938;2023-04-03T03:51:12;92905.94;;;5.03;83.12
8294;BME280;4185;41.506;24.938;2023-04-03T03:53:38;92906.50;;;5.07;81.46
8294;BME280;4185;41.506;24.938;2023-04-03T03:56:05;92921.31;;;5.03;81.60
8294;BME280;4185;41.506;24.938;2023-04-03T03:58:32;92926.34;;;4.95;80.55
8294;BME280;4185;41.506;24.938;2023-04-03T04:01:00;92928.94;;;4.89;81.31
8294;BME280;4185;41.506;24.938;2023-04-03T04:03:27;92922.44;;;4.81;81.78
8294;BME280;4185;41.506;24.938;2023-04-03T04:05:54;92921.22;;;4.82;82.27
8294;BME280;4185;41.506;24.938;2023-04-03T04:08:22;92917.88;;;4.87;81.75
8294;BME280;4185;41.506;24.938;2023-04-03T04:10:49;92912.25;;;5.00;81.11
8294;BME280;4185;41.506;24.938;2023-04-03T04:13:16;92919.50;;;5.09;81.57
8294;BME280;4185;41.506;24.938;2023-04-03T04:15:43;92914.63;;;5.13;80.76
8294;BME280;4185;41.506;24.938;2023-04-03T04:18:10;92908.34;;;5.16;80.81
8294;BME280;4185;41.506;24.938;2023-04-03T04:20:36;92919.59;;;5.14;80.91
8294;BME280;4185;41.506;24.938;2023-04-03T04:23:03;92919.13;;;5.16;80.32
8294;BME280;4185;41.506;24.938;2023-04-03T04:25:31;92916.44;;;5.16;80.68
8294;BME280;4185;41.506;24.938;2023-04-03T04:27:59;92919.31;;;5.12;81.07
8294;BME280;4185;41.506;24.938;2023-04-03T04:30:25;92912.50;;;5.17;80.98
8294;BME280;4185;41.506;24.938;2023-04-03T04:32:52;92910.56;;;5.17;81.43
8294;BME280;4185;41.506;24.938;2023-04-03T04:35:19;92910.94;;;5.10;81.24
8294;BME280;4185;41.506;24.938;2023-04-03T04:37:46;92914.47;;;5.02;81.90
8294;BME280;4185;41.506;24.938;2023-04-03T04:40:13;92912.78;;;4.89;82.03
8294;BME280;4185;41.506;24.938;2023-04-03T04:42:41;92923.38;;;4.93;81.92
8294;BME280;4185;41.506;24.938;2023-04-03T04:45:08;92931.56;;;4.98;82.23
8294;BME280;4185;41.506;24.938;2023-04-03T04:47:35;92933.94;;;5.11;81.71
8294;BME280;4185;41.506;24.938;2023-04-03T04:50:02;92922.06;;;5.18;81.69
8294;BME280;4185;41.506;24.938;2023-04-03T04:52:29;92921.81;;;5.16;81.67
8294;BME280;4185;41.506;24.938;2023-04-03T04:54:56;92931.06;;;5.15;81.55
8294;BME280;4185;41.506;24.938;2023-04-03T04:57:23;92924.88;;;5.09;82.21
8294;BME280;4185;41.506;24.938;2023-04-03T04:59:51;92918.16;;;5.04;82.57
8294;BME280;4185;41.506;24.938;2023-04-03T05:02:18;92904.16;;;5.00;82.55
8294;BME280;4185;41.506;24.938;2023-04-03T05:04:45;92909.66;;;5.06;83.08
8294;BME280;4185;41.506;24.938;2023-04-03T05:07:15;92909.25;;;5.13;83.01
8294;BME280;4185;41.506;24.938;2023-04-03T05:09:42;92913.09;;;5.21;83.26
8294;BME280;4185;41.506;24.938;2023-04-03T05:12:09;92906.66;;;5.33;82.43
8294;BME280;4185;41.506;24.938;2023-04-03T05:14:35;92916.78;;;5.38;82.38
8294;BME280;4185;41.506;24.938;2023-04-03T05:17:03;92933.94;;;5.40;82.29
8294;BME280;4185;41.506;24.938;2023-04-03T05:19:30;92930.13;;;5.47;82.68
8294;BME280;4185;41.506;24.938;2023-04-03T05:21:57;92937.28;;;5.50;82.20
8294;BME280;4185;41.506;24.938;2023-04-03T05:24:24;92936.09;;;5.51;82.52
8294;BME280;4185;41.506;24.938;2023-04-03T05:26:51;92939.91;;;5.44;82.01
8294;BME280;4185;41.506;24.938;2023-04-03T05:29:18;92946.19;;;5.41;82.49
8294;BME280;4185;41.506;24.938;2023-04-03T05:31:45;92928.19;;;5.47;83.18
8294;BME280;4185;41.506;24.938;2023-04-03T05:34:13;92926.88;;;5.57;83.09
8294;BME280;4185;41.506;24.938;2023-04-03T05:36:40;92923.44;;;5.57;82.31
8294;BME280;4185;41.506;24.938;2023-04-03T05:39:07;92924.66;;;5.56;83.14
8294;BME280;4185;41.506;24.938;2023-04-03T05:41:34;92921.75;;;5.59;83.19
8294;BME280;4185;41.506;24.938;2023-04-03T05:44:01;92915.81;;;5.70;83.43
8294;BME280;4185;41.506;24.938;2023-04-03T05:46:28;92918.28;;;5.73;82.96
8294;BME280;4185;41.506;24.938;2023-04-03T05:48:55;92908.63;;;5.81;83.27
8294;BME280;4185;41.506;24.938;2023-04-03T05:51:25;92908.97;;;5.89;83.49
8294;BME280;4185;41.506;24.938;2023-04-03T05:53:55;92915.22;;;5.95;82.95
8294;BME280;4185;41.506;24.938;2023-04-03T05:56:23;92907.66;;;5.99;83.81
8294;BME280;4185;41.506;24.938;2023-04-03T05:58:50;92909.66;;;6.04;83.57
8294;BME280;4185;41.506;24.938;2023-04-03T06:01:17;92912.66;;;6.06;82.93
8294;BME280;4185;41.506;24.938;2023-04-03T06:03:44;92915.41;;;6.11;82.79
8294;BME280;4185;41.506;24.938;2023-04-03T06:06:12;92916.28;;;6.03;83.13
8294;BME280;4185;41.506;24.938;2023-04-03T06:08:42;92907.66;;;5.99;83.98
8294;BME280;4185;41.506;24.938;2023-04-03T06:11:09;92913.50;;;5.97;83.94
8294;BME280;4185;41.506;24.938;2023-04-03T06:13:36;92912.56;;;6.00;84.50
8294;BME280;4185;41.506;24.938;2023-04-03T06:16:04;92917.75;;;6.04;84.98
8294;BME280;4185;41.506;24.938;2023-04-03T06:18:31;92920.47;;;6.04;84.20
8294;BME280;4185;41.506;24.938;2023-04-03T06:20:58;92919.25;;;6.05;83.90
8294;BME280;4185;41.506;24.938;2023-04-03T06:23:26;92916.84;;;6.07;85.28
8294;BME280;4185;41.506;24.938;2023-04-03T06:25:54;92914.88;;;6.07;84.97
8294;BME280;4185;41.506;24.938;2023-04-03T06:28:21;92924.25;;;6.12;85.36
8294;BME280;4185;41.506;24.938;2023-04-03T06:30:47;92923.59;;;6.17;85.46
8294;BME280;4185;41.506;24.938;2023-04-03T06:33:14;92924.38;;;6.23;85.53
8294;BME280;4185;41.506;24.938;2023-04-03T06:35:41;92939.63;;;6.26;85.75
8294;BME280;4185;41.506;24.938;2023-04-03T06:38:08;92932.88;;;6.36;85.90
8294;BME280;4185;41.506;24.938;2023-04-03T06:40:35;92929.06;;;6.43;86.12
8294;BME280;4185;41.506;24.938;2023-04-03T06:43:03;92935.31;;;6.54;86.26
8294;BME280;4185;41.506;24.938;2023-04-03T06:45:30;92939.84;;;6.63;85.43
8294;BME280;4185;41.506;24.938;2023-04-03T06:47:57;92938.41;;;6.67;85.18
8294;BME280;4185;41.506;24.938;2023-04-03T06:50:25;92937.47;;;6.70;85.35
8294;BME280;4185;41.506;24.938;2023-04-03T06:52:51;92950.47;;;6.72;85.38
8294;BME280;4185;41.506;24.938;2023-04-03T06:55:18;92940.72;;;6.74;86.08
8294;BME280;4185;41.506;24.938;2023-04-03T06:57:45;92940.50;;;6.78;86.15
8294;BME280;4185;41.506;24.938;2023-04-03T07:00:15;92938.13;;;6.85;85.49
8294;BME280;4185;41.506;24.938;2023-04-03T07:02:42;92936.22;;;6.91;85.14
8294;BME280;4185;41.506;24.938;2023-04-03T07:05:09;92940.69;;;6.94;84.76
8294;BME280;4185;41.506;24.938;2023-04-03T07:07:35;92938.97;;;6.97;84.82
8294;BME280;4185;41.506;24.938;2023-04-03T07:10:07;92939.03;;;7.02;85.17
8294;BME280;4185;41.506;24.938;2023-04-03T07:12:35;92925.81;;;7.04;84.43
8294;BME280;4185;41.506;24.938;2023-04-03T07:15:03;92926.59;;;7.10;85.36
8294;BME280;4185;41.506;24.938;2023-04-03T07:17:31;92920.75;;;7.17;85.96
8294;BME280;4185;41.506;24.938;2023-04-03T07:19:58;92925.19;;;7.20;84.58
8294;BME280;4185;41.506;24.938;2023-04-03T07:22:25;92923.31;;;7.26;84.59
8294;BME280;4185;41.506;24.938;2023-04-03T07:24:52;92918.94;;;7.34;84.78
8294;BME280;4185;41.506;24.938;2023-04-03T07:27:19;92919.97;;;7.37;84.97
8294;BME280;4185;41.506;24.938;2023-04-03T07:29:46;92916.31;;;7.40;84.45
8294;BME280;4185;41.506;24.938;2023-04-03T07:32:13;92911.47;;;7.50;84.41
8294;BME280;4185;41.506;24.938;2023-04-03T07:34:42;92906.84;;;7.56;84.52
8294;BME280;4185;41.506;24.938;2023-04-03T07:37:09;92908.09;;;7.60;84.23
8294;BME280;4185;41.506;24.938;2023-04-03T07:39:35;92906.66;;;7.65;84.30
8294;BME280;4185;41.506;24.938;2023-04-03T07:42:03;92904.97;;;7.67;84.46
8294;BME280;4185;41.506;24.938;2023-04-03T07:44:29;92900.31;;;7.68;84.30
8294;BME280;4185;41.506;24.938;2023-04-03T07:46:56;92895.91;;;7.70;84.25
8294;BME280;4185;41.506;24.938;2023-04-03T07:49:23;92896.91;;;7.73;83.60
8294;BME280;4185;41.506;24.938;2023-04-03T07:51:51;92893.25;;;7.76;83.62
8294;BME280;4185;41.506;24.938;2023-04-03T07:54:18;92898.66;;;7.76;82.99
8294;BME280;4185;41.506;24.938;2023-04-03T07:56:45;92895.72;;;7.79;83.51
8294;BME280;4185;41.506;24.938;2023-04-03T07:59:12;92894.69;;;7.77;83.15
8294;BME280;4185;41.506;24.938;2023-04-03T08:01:38;92904.06;;;7.76;83.15
8294;BME280;4185;41.506;24.938;2023-04-03T08:04:05;92903.81;;;7.79;83.89
8294;BME280;4185;41.506;24.938;2023-04-03T08:06:32;92902.84;;;7.82;83.43
8294;BME280;4185;41.506;24.938;2023-04-03T08:09:03;92895.72;;;7.85;83.40
8294;BME280;4185;41.506;24.938;2023-04-03T08:11:30;92899.22;;;7.91;82.90
8294;BME280;4185;41.506;24.938;2023-04-03T08:13:57;92892.59;;;7.92;83.32
8294;BME280;4185;41.506;24.938;2023-04-03T08:16:24;92893.59;;;7.94;83.06
8294;BME280;4185;41.506;24.938;2023-04-03T08:18:52;92890.41;;;7.96;83.26
8294;BME280;4185;41.506;24.938;2023-04-03T08:21:19;92885.75;;;7.96;85.06
8294;BME280;4185;41.506;24.938;2023-04-03T08:23:47;92881.31;;;7.99;84.09
8294;BME280;4185;41.506;24.938;2023-04-03T08:26:17;92880.34;;;8.02;84.52
8294;BME280;4185;41.506;24.938;2023-04-03T08:28:44;92877.66;;;8.02;84.44
8294;BME280;4185;41.506;24.938;2023-04-03T08:31:13;92879.16;;;8.03;85.12
8294;BME280;4185;41.506;24.938;2023-04-03T08:33:41;92880.63;;;8.04;86.07
8294;BME280;4185;41.506;24.938;2023-04-03T08:36:17;92879.91;;;8.09;87.32
8294;BME280;4185;41.506;24.938;2023-04-03T08:38:44;92877.41;;;8.05;87.95
8294;BME280;4185;41.506;24.938;2023-04-03T08:41:14;92897.88;;;8.12;88.13
8294;BME280;4185;41.506;24.938;2023-04-03T08:43:53;92903.28;;;8.12;87.40
8294;BME280;4185;41.506;24.938;2023-04-03T08:46:24;92909.16;;;8.10;89.29
8294;BME280;4185;41.506;24.938;2023-04-03T08:48:53;92908.22;;;8.19;89.68
8294;BME280;4185;41.506;24.938;2023-04-03T08:51:22;92917.16;;;8.25;89.69
8294;BME280;4185;41.506;24.938;2023-04-03T08:53:55;92917.88;;;8.25;89.40
8294;BME280;4185;41.506;24.938;2023-04-03T08:56:24;92918.63;;;8.26;89.70
8294;BME280;4185;41.506;24.938;2023-04-03T08:58:55;92912.00;;;8.27;90.35
8294;BME280;4185;41.506;24.938;2023-04-03T09:01:26;92902.66;;;8.28;92.13
8294;BME280;4185;41.506;24.938;2023-04-03T09:03:53;92891.38;;;8.35;91.74
8294;BME280;4185;41.506;24.938;2023-04-03T09:06:22;92869.03;;;8.40;91.93
8294;BME280;4185;41.506;24.938;2023-04-03T09:08:56;92866.34;;;8.45;91.13
8294;BME280;4185;41.506;24.938;2023-04-03T09:11:33;92859.19;;;8.48;91.44
8294;BME280;4185;41.506;24.938;2023-04-03T09:14:11;92855.50;;;8.45;94.82
8294;BME280;4185;41.506;24.938;2023-04-03T09:16:47;92841.22;;;8.45;94.05
8294;BME280;4185;41.506;24.938;2023-04-03T09:19:22;92856.22;;;8.46;95.43
8294;BME280;4185;41.506;24.938;2023-04-03T09:21:56;92868.03;;;8.43;94.09
8294;BME280;4185;41.506;24.938;2023-04-03T09:24:24;92871.72;;;8.40;94.84
8294;BME280;4185;41.506;24.938;2023-04-03T09:26:54;92861.38;;;8.44;94.68
8294;BME280;4185;41.506;24.938;2023-04-03T09:29:26;92862.91;;;8.50;95.91
8294;BME280;4185;41.506;24.938;2023-04-03T09:31:56;92869.81;;;8.57;96.96
8294;BME280;4185;41.506;24.938;2023-04-03T09:34:28;92861.47;;;8.66;96.79
8294;BME280;4185;41.506;24.938;2023-04-03T09:36:58;92863.69;;;8.73;96.12
8294;BME280;4185;41.506;24.938;2023-04-03T09:39:32;92861.78;;;8.90;95.45
8294;BME280;4185;41.506;24.938;2023-04-03T09:42:00;92870.41;;;9.05;95.22
8294;BME280;4185;41.506;24.938;2023-04-03T09:44:30;92861.31;;;9.19;93.38
8294;BME280;4185;41.506;24.938;2023-04-03T09:46:58;92860.84;;;9.26;92.53
8294;BME280;4185;41.506;24.938;2023-04-03T09:49:26;92855.41;;;9.26;92.10
8294;BME280;4185;41.506;24.938;2023-04-03T09:51:53;92864.28;;;9.21;94.03
8294;BME280;4185;41.506;24.938;2023-04-03T09:54:40;92871.91;;;9.17;95.72
8294;BME280;4185;41.506;24.938;2023-04-03T09:57:10;92865.28;;;9.18;95.44
8294;BME280;4185;41.506;24.938;2023-04-03T09:59:55;92858.63;;;9.19;95.96
8294;BME280;4185;41.506;24.938;2023-04-03T10:02:32;92865.00;;;9.22;95.54
8294;BME280;4185;41.506;24.938;2023-04-03T10:05:00;92874.13;;;9.24;94.22
8294;BME280;4185;41.506;24.938;2023-04-03T10:07:33;92874.66;;;9.28;97.35
8294;BME280;4185;41.506;24.938;2023-04-03T10:10:02;92865.28;;;9.29;96.61
8294;BME280;4185;41.506;24.938;2023-04-03T10:12:29;92864.53;;;9.34;96.64
8294;BME280;4185;41.506;24.938;2023-04-03T10:14:59;92867.97;;;9.40;94.61
8294;BME280;4185;41.506;24.938;2023-04-03T10:17:34;92860.09;;;9.42;93.65
8294;BME280;4185;41.506;24.938;2023-04-03T10:20:23;92850.97;;;9.45;93.75
8294;BME280;4185;41.506;24.938;2023-04-03T10:23:00;92844.59;;;9.48;94.02
8294;BME280;4185;41.506;24.938;2023-04-03T10:25:34;92846.28;;;9.51;94.04
8294;BME280;4185;41.506;24.938;2023-04-03T10:28:09;92858.38;;;9.50;93.95
8294;BME280;4185;41.506;24.938;2023-04-03T10:30:47;92845.56;;;9.51;96.59
8294;BME280;4185;41.506;24.938;2023-04-03T10:33:32;92822.88;;;9.59;95.84
8294;BME280;4185;41.506;24.938;2023-04-03T10:36:09;92819.66;;;9.61;97.26
8294;BME280;4185;41.506;24.938;2023-04-03T10:38:44;92819.66;;;9.61;96.05
8294;BME280;4185;41.506;24.938;2023-04-03T10:41:17;92825.84;;;9.61;95.84
8294;BME280;4185;41.506;24.938;2023-04-03T10:43:54;92827.06;;;9.60;96.03
8294;BME280;4185;41.506;24.938;2023-04-03T10:46:28;92821.91;;;9.57;95.80
8294;BME280;4185;41.506;24.938;2023-04-03T10:49:11;92821.16;;;9.56;96.62
8294;BME280;4185;41.506;24.938;2023-04-03T10:51:42;92823.88;;;9.56;96.49
8294;BME280;4185;41.506;24.938;2023-04-03T10:54:12;92816.69;;;9.59;96.31
8294;BME280;4185;41.506;24.938;2023-04-03T10:56:40;92814.00;;;9.64;97.05
8294;BME280;4185;41.506;24.938;2023-04-03T10:59:17;92805.84;;;9.70;95.18
8294;BME280;4185;41.506;24.938;2023-04-03T11:01:49;92802.63;;;9.71;94.51
8294;BME280;4185;41.506;24.938;2023-04-03T11:04:19;92802.91;;;9.68;94.47
8294;BME280;4185;41.506;24.938;2023-04-03T11:06:51;92804.13;;;9.61;93.65
8294;BME280;4185;41.506;24.938;2023-04-03T11:09:24;92799.47;;;9.62;93.83
8294;BME280;4185;41.506;24.938;2023-04-03T11:11:56;92803.91;;;9.59;94.21
8294;BME280;4185;41.506;24.938;2023-04-03T11:14:29;92804.88;;;9.56;93.01
8294;BME280;4185;41.506;24.938;2023-04-03T11:17:07;92805.38;;;9.55;93.24
8294;BME280;4185;41.506;24.938;2023-04-03T11:19:41;92803.19;;;9.53;93.66
8294;BME280;4185;41.506;24.938;2023-04-03T11:22:16;92795.03;;;9.53;94.20
8294;BME280;4185;41.506;24.938;2023-04-03T11:24:54;92794.53;;;9.55;96.07
8294;BME280;4185;41.506;24.938;2023-04-03T11:27:23;92785.91;;;9.56;96.06
8294;BME280;4185;41.506;24.938;2023-04-03T11:29:52;92788.38;;;9.54;95.19
8294;BME280;4185;41.506;24.938;2023-04-03T11:35:19;92786.66;;;9.57;95.67
8294;BME280;4185;41.506;24.938;2023-04-03T11:37:48;92778.03;;;9.58;95.58
8294;BME280;4185;41.506;24.938;2023-04-03T11:40:22;92779.00;;;9.61;95.66
8294;BME280;4185;41.506;24.938;2023-04-03T11:42:55;92774.31;;;9.61;94.89
8294;BME280;4185;41.506;24.938;2023-04-03T11:45:35;92770.13;;;9.60;94.33
8294;BME280;4185;41.506;24.938;2023-04-03T11:48:06;92764.22;;;9.56;95.47
8294;BME280;4185;41.506;24.938;2023-04-03T11:50:42;92762.75;;;9.55;95.76
8294;BME280;4185;41.506;24.938;2023-04-03T11:53:33;92763.22;;;9.59;97.17
8294;BME280;4185;41.506;24.938;2023-04-03T11:56:03;92749.91;;;9.61;97.09
8294;BME280;4185;41.506;24.938;2023-04-03T11:58:32;92749.16;;;9.61;98.28
8294;BME280;4185;41.506;24.938;2023-04-03T12:01:07;92742.78;;;9.64;98.58
8294;BME280;4185;41.506;24.938;2023-04-03T12:07:18;92752.63;;;9.61;99.40
8294;BME280;4185;41.506;24.938;2023-04-03T12:10:17;92754.09;;;9.62;99.38
8294;BME280;4185;41.506;24.938;2023-04-03T12:12:58;92750.88;;;9.69;98.62
8294;BME280;4185;41.506;24.938;2023-04-03T12:15:49;92758.25;;;9.74;99.08
8294;BME280;4185;41.506;24.938;2023-04-03T12:18:41;92753.56;;;9.80;99.16
8294;BME280;4185;41.506;24.938;2023-04-03T12:21:08;92752.81;;;9.85;97.91
8294;BME280;4185;41.506;24.938;2023-04-03T12:23:56;92736.53;;;9.85;98.94
8294;BME280;4185;41.506;24.938;2023-04-03T12:26:25;92735.03;;;9.84;98.62
8294;BME280;4185;41.506;24.938;2023-04-03T12:28:53;92732.13;;;9.82;97.88
8294;BME280;4185;41.506;24.938;2023-04-03T12:31:24;92724.72;;;9.77;98.22
8294;BME280;4185;41.506;24.938;2023-04-03T12:34:18;92719.81;;;9.70;98.14
8294;BME280;4185;41.506;24.938;2023-04-03T12:36:59;92738.06;;;9.64;99.84
8294;BME280;4185;41.506;24.938;2023-04-03T12:39:44;92744.75;;;9.63;100.00
8294;BME280;4185;41.506;24.938;2023-04-03T12:42:35;92732.91;;;9.66;100.00
8294;BME280;4185;41.506;24.938;2023-04-03T12:45:15;92710.94;;;9.75;100.00
8294;BME280;4185;41.506;24.938;2023-04-03T12:47:44;92696.34;;;9.84;100.00
8294;BME280;4185;41.506;24.938;2023-04-03T12:50:21;92690.69;;;9.82;100.00
8294;BME280;4185;41.506;24.938;2023-04-03T12:52:54;92688.75;;;9.71;99.38
8294;BME280;4185;41.506;24.938;2023-04-03T12:55:24;92692.97;;;9.61;98.98
8294;BME280;4185;41.506;24.938;2023-04-03T12:57:51;92693.75;;;9.56;100.00
8294;BME280;4185;41.506;24.938;2023-04-03T13:00:30;92691.28;;;9.58;100.00
8294;BME280;4185;41.506;24.938;2023-04-03T13:02:59;92683.16;;;9.58;100.00
8294;BME280;4185;41.506;24.938;2023-04-03T13:05:26;92677.97;;;9.60;100.00
8294;BME280;4185;41.506;24.938;2023-04-03T13:07:58;92664.63;;;9.62;100.00
8294;BME280;4185;41.506;24.938;2023-04-03T13:10:26;92654.50;;;9.68;100.00
8294;BME280;4185;41.506;24.938;2023-04-03T13:12:55;92646.38;;;9.68;100.00
8294;BME280;4185;41.506;24.938;2023-04-03T13:15:24;92632.56;;;9.66;99.98
8294;BME280;4185;41.506;24.938;2023-04-03T13:17:53;92623.97;;;9.62;99.60
8294;BME280;4185;41.506;24.938;2023-04-03T13:20:23;92619.31;;;9.57;100.00
8294;BME280;4185;41.506;24.938;2023-04-03T13:22:55;92626.72;;;9.51;100.00
8294;BME280;4185;41.506;24.938;2023-04-03T13:25:24;92612.19;;;9.49;100.00
8294;BME280;4185;41.506;24.938;2023-04-03T13:27:54;92608.00;;;9.53;100.00
8294;BME280;4185;41.506;24.938;2023-04-03T13:30:25;92609.72;;;9.56;99.43
8294;BME280;4185;41.506;24.938;2023-04-03T13:32:53;92605.03;;;9.57;98.08
8294;BME280;4185;41.506;24.938;2023-04-03T13:35:32;92593.72;;;9.47;97.79
8294;BME280;4185;41.506;24.938;2023-04-03T13:38:02;92606.06;;;9.48;99.09
8294;BME280;4185;41.506;24.938;2023-04-03T13:40:29;92617.16;;;9.45;99.14
8294;BME280;4185;41.506;24.938;2023-04-03T13:43:03;92633.16;;;9.43;100.00
8294;BME280;4185;41.506;24.938;2023-04-03T13:45:32;92637.84;;;9.42;99.97